In Rescue
 
Open Full Screen Window  High Contrast Mode
Wind Gusting 00 knots
03
November 20, 2019 1:58 AM EST
Present Weather: Mist
Weather Information
Wind Direction
  270 °
Wind Speed
  03 kt (3 mph)
Wind Gust
  00 kt (0 mph)
Altimeter
30.01 in
Visibility
5 SM
Temperature
05° C
41° F
Dewpoint
03° C
37° F
Humidity
87%
Sky Condition
Overcast @ 2,300 ft
MVFR

METAR KRNP 200658Z AUTO 27003KT 5SM BR OVC023 05/03 A3001 RMK AO2 T00460025

FAA Disclaimer: The data displayed is for advisory purposes only and is not to be used for flight planning or operations.